sensor_id;sensor_type;location;lat;lon;timestamp;P1;durP1;ratioP1;P2;durP2;ratioP2
17796;SDS011;55596;53.554;9.916;2023-07-30T00:00:49;18.33;;;10.90;;
17796;SDS011;55596;53.554;9.916;2023-07-30T00:03:16;13.87;;;10.90;;
17796;SDS011;55596;53.554;9.916;2023-07-30T00:05:51;15.77;;;11.10;;
17796;SDS011;55596;53.554;9.916;2023-07-30T00:08:18;13.27;;;11.00;;
17796;SDS011;55596;53.554;9.916;2023-07-30T00:10:45;19.33;;;11.30;;
17796;SDS011;55596;53.554;9.916;2023-07-30T00:13:12;12.00;;;10.17;;
17796;SDS011;55596;53.554;9.916;2023-07-30T00:15:41;15.40;;;10.70;;
17796;SDS011;55596;53.554;9.916;2023-07-30T00:18:08;11.23;;;8.70;;
17796;SDS011;55596;53.554;9.916;2023-07-30T00:20:35;12.37;;;9.43;;
17796;SDS011;55596;53.554;9.916;2023-07-30T00:23:04;13.87;;;10.10;;
17796;SDS011;55596;53.554;9.916;2023-07-30T00:25:31;17.33;;;10.30;;
17796;SDS011;55596;53.554;9.916;2023-07-30T00:27:59;12.53;;;10.00;;
17796;SDS011;55596;53.554;9.916;2023-07-30T00:30:26;12.63;;;9.57;;
17796;SDS011;55596;53.554;9.916;2023-07-30T00:32:54;17.33;;;10.70;;
17796;SDS011;55596;53.554;9.916;2023-07-30T00:35:22;15.60;;;10.37;;
17796;SDS011;55596;53.554;9.916;2023-07-30T00:37:49;15.90;;;11.30;;
17796;SDS011;55596;53.554;9.916;2023-07-30T00:40:17;13.50;;;11.40;;
17796;SDS011;55596;53.554;9.916;2023-07-30T00:42:44;13.63;;;10.57;;
17796;SDS011;55596;53.554;9.916;2023-07-30T00:45:11;16.67;;;12.60;;
17796;SDS011;55596;53.554;9.916;2023-07-30T00:47:38;15.13;;;11.43;;
17796;SDS011;55596;53.554;9.916;2023-07-30T00:50:09;14.00;;;10.70;;
17796;SDS011;55596;53.554;9.916;2023-07-30T00:52:37;13.17;;;10.13;;
17796;SDS011;55596;53.554;9.916;2023-07-30T00:55:05;17.00;;;12.30;;
17796;SDS011;55596;53.554;9.916;2023-07-30T00:57:35;16.30;;;11.30;;
17796;SDS011;55596;53.554;9.916;2023-07-30T01:00:03;16.00;;;12.27;;
17796;SDS011;55596;53.554;9.916;2023-07-30T01:02:32;16.27;;;12.17;;
17796;SDS011;55596;53.554;9.916;2023-07-30T01:04:59;18.43;;;12.60;;
17796;SDS011;55596;53.554;9.916;2023-07-30T01:07:29;19.37;;;12.87;;
17796;SDS011;55596;53.554;9.916;2023-07-30T01:09:57;18.93;;;14.33;;
17796;SDS011;55596;53.554;9.916;2023-07-30T01:12:24;19.40;;;13.73;;
17796;SDS011;55596;53.554;9.916;2023-07-30T01:14:52;19.40;;;15.13;;
17796;SDS011;55596;53.554;9.916;2023-07-30T01:17:21;16.23;;;14.13;;
17796;SDS011;55596;53.554;9.916;2023-07-30T01:19:48;20.37;;;14.47;;
17796;SDS011;55596;53.554;9.916;2023-07-30T01:22:21;22.97;;;15.60;;
17796;SDS011;55596;53.554;9.916;2023-07-30T01:24:48;21.40;;;15.57;;
17796;SDS011;55596;53.554;9.916;2023-07-30T01:27:16;20.40;;;14.33;;
17796;SDS011;55596;53.554;9.916;2023-07-30T01:29:48;23.23;;;15.70;;
17796;SDS011;55596;53.554;9.916;2023-07-30T01:32:17;23.20;;;16.33;;
17796;SDS011;55596;53.554;9.916;2023-07-30T01:34:46;25.10;;;15.57;;
17796;SDS011;55596;53.554;9.916;2023-07-30T01:37:15;22.03;;;16.93;;
17796;SDS011;55596;53.554;9.916;2023-07-30T01:39:45;23.40;;;15.60;;
17796;SDS011;55596;53.554;9.916;2023-07-30T01:42:13;22.77;;;16.20;;
17796;SDS011;55596;53.554;9.916;2023-07-30T01:44:40;23.93;;;15.80;;
17796;SDS011;55596;53.554;9.916;2023-07-30T01:47:08;27.00;;;18.13;;
17796;SDS011;55596;53.554;9.916;2023-07-30T01:49:35;25.13;;;16.97;;
17796;SDS011;55596;53.554;9.916;2023-07-30T01:52:02;25.70;;;17.73;;
17796;SDS011;55596;53.554;9.916;2023-07-30T01:54:29;28.23;;;17.73;;
17796;SDS011;55596;53.554;9.916;2023-07-30T01:56:59;28.07;;;17.47;;
17796;SDS011;55596;53.554;9.916;2023-07-30T01:59:27;27.60;;;17.77;;
17796;SDS011;55596;53.554;9.916;2023-07-30T02:01:54;26.17;;;17.30;;
17796;SDS011;55596;53.554;9.916;2023-07-30T02:04:21;31.83;;;18.77;;
17796;SDS011;55596;53.554;9.916;2023-07-30T02:06:48;25.57;;;18.17;;
17796;SDS011;55596;53.554;9.916;2023-07-30T02:09:15;24.93;;;17.37;;
17796;SDS011;55596;53.554;9.916;2023-07-30T02:11:43;32.83;;;19.53;;
17796;SDS011;55596;53.554;9.916;2023-07-30T02:14:11;31.40;;;20.10;;
17796;SDS011;55596;53.554;9.916;2023-07-30T02:16:38;29.90;;;20.37;;
17796;SDS011;55596;53.554;9.916;2023-07-30T02:19:05;39.87;;;22.70;;
17796;SDS011;55596;53.554;9.916;2023-07-30T02:21:33;34.90;;;21.70;;
17796;SDS011;55596;53.554;9.916;2023-07-30T02:24:02;32.40;;;21.93;;
17796;SDS011;55596;53.554;9.916;2023-07-30T02:26:29;37.93;;;23.03;;
17796;SDS011;55596;53.554;9.916;2023-07-30T02:28:56;35.63;;;23.23;;
17796;SDS011;55596;53.554;9.916;2023-07-30T02:31:26;40.70;;;24.53;;
17796;SDS011;55596;53.554;9.916;2023-07-30T02:33:53;41.67;;;27.40;;
17796;SDS011;55596;53.554;9.916;2023-07-30T02:36:20;42.93;;;28.23;;
17796;SDS011;55596;53.554;9.916;2023-07-30T02:38:48;43.33;;;29.43;;
17796;SDS011;55596;53.554;9.916;2023-07-30T02:41:15;44.53;;;28.50;;
17796;SDS011;55596;53.554;9.916;2023-07-30T02:43:43;55.47;;;29.93;;
17796;SDS011;55596;53.554;9.916;2023-07-30T02:46:10;43.83;;;27.07;;
17796;SDS011;55596;53.554;9.916;2023-07-30T02:48:38;46.20;;;27.57;;
17796;SDS011;55596;53.554;9.916;2023-07-30T02:51:05;46.70;;;27.80;;
17796;SDS011;55596;53.554;9.916;2023-07-30T02:53:32;45.03;;;28.43;;
17796;SDS011;55596;53.554;9.916;2023-07-30T02:56:00;45.43;;;28.33;;
17796;SDS011;55596;53.554;9.916;2023-07-30T02:58:27;49.67;;;29.73;;
17796;SDS011;55596;53.554;9.916;2023-07-30T03:00:54;47.10;;;28.77;;
17796;SDS011;55596;53.554;9.916;2023-07-30T03:03:23;49.57;;;29.77;;
17796;SDS011;55596;53.554;9.916;2023-07-30T03:05:52;49.07;;;29.47;;
17796;SDS011;55596;53.554;9.916;2023-07-30T03:08:20;52.17;;;29.83;;
17796;SDS011;55596;53.554;9.916;2023-07-30T03:10:48;50.33;;;29.63;;
17796;SDS011;55596;53.554;9.916;2023-07-30T03:13:17;52.83;;;30.60;;
17796;SDS011;55596;53.554;9.916;2023-07-30T03:15:46;57.77;;;30.70;;
17796;SDS011;55596;53.554;9.916;2023-07-30T03:18:14;49.13;;;30.03;;
17796;SDS011;55596;53.554;9.916;2023-07-30T03:20:41;60.80;;;32.27;;
17796;SDS011;55596;53.554;9.916;2023-07-30T03:23:10;59.77;;;31.00;;
17796;SDS011;55596;53.554;9.916;2023-07-30T03:25:37;53.77;;;31.67;;
17796;SDS011;55596;53.554;9.916;2023-07-30T03:28:05;55.50;;;31.70;;
17796;SDS011;55596;53.554;9.916;2023-07-30T03:30:32;56.47;;;31.43;;
17796;SDS011;55596;53.554;9.916;2023-07-30T03:32:59;53.87;;;31.07;;
17796;SDS011;55596;53.554;9.916;2023-07-30T03:35:27;57.77;;;31.77;;
17796;SDS011;55596;53.554;9.916;2023-07-30T03:37:54;64.50;;;33.07;;
17796;SDS011;55596;53.554;9.916;2023-07-30T03:40:22;56.50;;;31.37;;
17796;SDS011;55596;53.554;9.916;2023-07-30T03:42:49;70.13;;;33.60;;
17796;SDS011;55596;53.554;9.916;2023-07-30T03:45:17;54.87;;;31.93;;
17796;SDS011;55596;53.554;9.916;2023-07-30T03:47:44;53.90;;;30.73;;
17796;SDS011;55596;53.554;9.916;2023-07-30T03:50:11;73.53;;;34.87;;
17796;SDS011;55596;53.554;9.916;2023-07-30T03:52:38;59.27;;;30.83;;
17796;SDS011;55596;53.554;9.916;2023-07-30T03:55:06;62.63;;;33.70;;
17796;SDS011;55596;53.554;9.916;2023-07-30T03:57:34;58.90;;;30.73;;
17796;SDS011;55596;53.554;9.916;2023-07-30T04:00:02;63.67;;;31.83;;
17796;SDS011;55596;53.554;9.916;2023-07-30T04:02:29;62.17;;;31.13;;
17796;SDS011;55596;53.554;9.916;2023-07-30T04:04:59;54.20;;;31.47;;
17796;SDS011;55596;53.554;9.916;2023-07-30T04:07:26;70.50;;;31.63;;
17796;SDS011;55596;53.554;9.916;2023-07-30T04:09:53;64.77;;;34.00;;
17796;SDS011;55596;53.554;9.916;2023-07-30T04:12:22;66.30;;;31.83;;
17796;SDS011;55596;53.554;9.916;2023-07-30T04:14:50;52.90;;;30.53;;
17796;SDS011;55596;53.554;9.916;2023-07-30T04:17:17;63.47;;;31.13;;
17796;SDS011;55596;53.554;9.916;2023-07-30T04:19:44;53.33;;;29.47;;
17796;SDS011;55596;53.554;9.916;2023-07-30T04:22:12;52.73;;;28.80;;
17796;SDS011;55596;53.554;9.916;2023-07-30T04:24:39;59.37;;;29.90;;
17796;SDS011;55596;53.554;9.916;2023-07-30T04:27:06;66.00;;;29.23;;
17796;SDS011;55596;53.554;9.916;2023-07-30T04:29:34;50.93;;;28.87;;
17796;SDS011;55596;53.554;9.916;2023-07-30T04:32:02;51.50;;;26.67;;
17796;SDS011;55596;53.554;9.916;2023-07-30T04:34:29;46.47;;;26.10;;
17796;SDS011;55596;53.554;9.916;2023-07-30T04:36:57;44.07;;;23.80;;
17796;SDS011;55596;53.554;9.916;2023-07-30T04:39:24;56.63;;;26.37;;
17796;SDS011;55596;53.554;9.916;2023-07-30T04:41:51;58.07;;;26.63;;
17796;SDS011;55596;53.554;9.916;2023-07-30T04:44:18;49.03;;;25.00;;
17796;SDS011;55596;53.554;9.916;2023-07-30T04:46:45;42.87;;;22.80;;
17796;SDS011;55596;53.554;9.916;2023-07-30T04:49:14;48.23;;;23.27;;
17796;SDS011;55596;53.554;9.916;2023-07-30T04:51:41;43.67;;;22.93;;
17796;SDS011;55596;53.554;9.916;2023-07-30T04:54:08;44.97;;;24.23;;
17796;SDS011;55596;53.554;9.916;2023-07-30T04:56:36;43.77;;;23.03;;
17796;SDS011;55596;53.554;9.916;2023-07-30T04:59:03;44.67;;;23.63;;
17796;SDS011;55596;53.554;9.916;2023-07-30T05:01:30;39.90;;;22.87;;
17796;SDS011;55596;53.554;9.916;2023-07-30T05:03:57;46.17;;;23.87;;
17796;SDS011;55596;53.554;9.916;2023-07-30T05:06:26;40.20;;;22.03;;
17796;SDS011;55596;53.554;9.916;2023-07-30T05:08:53;44.23;;;22.30;;
17796;SDS011;55596;53.554;9.916;2023-07-30T05:11:20;43.53;;;23.40;;
17796;SDS011;55596;53.554;9.916;2023-07-30T05:13:48;41.37;;;21.93;;
17796;SDS011;55596;53.554;9.916;2023-07-30T05:16:16;40.53;;;22.90;;
17796;SDS011;55596;53.554;9.916;2023-07-30T05:18:43;39.53;;;21.27;;
17796;SDS011;55596;53.554;9.916;2023-07-30T05:21:10;40.80;;;21.00;;
17796;SDS011;55596;53.554;9.916;2023-07-30T05:23:39;40.40;;;23.37;;
17796;SDS011;55596;53.554;9.916;2023-07-30T05:26:06;40.80;;;21.20;;
17796;SDS011;55596;53.554;9.916;2023-07-30T05:28:33;39.60;;;22.87;;
17796;SDS011;55596;53.554;9.916;2023-07-30T05:31:00;40.63;;;22.10;;
17796;SDS011;55596;53.554;9.916;2023-07-30T05:33:28;36.77;;;21.63;;
17796;SDS011;55596;53.554;9.916;2023-07-30T05:35:55;34.80;;;21.60;;
17796;SDS011;55596;53.554;9.916;2023-07-30T05:38:22;36.13;;;20.27;;
17796;SDS011;55596;53.554;9.916;2023-07-30T05:40:50;42.00;;;21.03;;
17796;SDS011;55596;53.554;9.916;2023-07-30T05:43:17;35.13;;;20.20;;
17796;SDS011;55596;53.554;9.916;2023-07-30T05:45:45;33.70;;;19.30;;
17796;SDS011;55596;53.554;9.916;2023-07-30T05:48:12;35.17;;;20.27;;
17796;SDS011;55596;53.554;9.916;2023-07-30T05:50:39;32.17;;;18.77;;
17796;SDS011;55596;53.554;9.916;2023-07-30T05:53:06;32.17;;;19.03;;
17796;SDS011;55596;53.554;9.916;2023-07-30T05:55:33;33.77;;;18.27;;
17796;SDS011;55596;53.554;9.916;2023-07-30T05:58:02;32.23;;;18.63;;
17796;SDS011;55596;53.554;9.916;2023-07-30T06:00:29;40.97;;;19.37;;
17796;SDS011;55596;53.554;9.916;2023-07-30T06:02:56;27.97;;;17.37;;
17796;SDS011;55596;53.554;9.916;2023-07-30T06:05:24;32.40;;;16.80;;
17796;SDS011;55596;53.554;9.916;2023-07-30T06:07:51;33.07;;;17.73;;
17796;SDS011;55596;53.554;9.916;2023-07-30T06:10:18;31.10;;;16.77;;
17796;SDS011;55596;53.554;9.916;2023-07-30T06:12:45;30.47;;;16.73;;
17796;SDS011;55596;53.554;9.916;2023-07-30T06:15:15;34.13;;;15.77;;
17796;SDS011;55596;53.554;9.916;2023-07-30T06:17:42;30.73;;;16.63;;
17796;SDS011;55596;53.554;9.916;2023-07-30T06:20:10;29.33;;;15.60;;
17796;SDS011;55596;53.554;9.916;2023-07-30T06:22:37;29.20;;;14.13;;
17796;SDS011;55596;53.554;9.916;2023-07-30T06:25:04;29.47;;;13.70;;
17796;SDS011;55596;53.554;9.916;2023-07-30T06:27:32;28.50;;;13.43;;
17796;SDS011;55596;53.554;9.916;2023-07-30T06:29:59;31.43;;;15.03;;
17796;SDS011;55596;53.554;9.916;2023-07-30T06:32:27;29.77;;;13.70;;
17796;SDS011;55596;53.554;9.916;2023-07-30T06:34:54;28.17;;;13.03;;
17796;SDS011;55596;53.554;9.916;2023-07-30T06:37:22;23.57;;;12.80;;
17796;SDS011;55596;53.554;9.916;2023-07-30T06:39:49;28.20;;;14.83;;
17796;SDS011;55596;53.554;9.916;2023-07-30T06:42:16;26.23;;;14.07;;
17796;SDS011;55596;53.554;9.916;2023-07-30T06:44:43;22.50;;;12.33;;
17796;SDS011;55596;53.554;9.916;2023-07-30T06:47:10;19.80;;;12.10;;
17796;SDS011;55596;53.554;9.916;2023-07-30T06:49:39;26.93;;;12.33;;
17796;SDS011;55596;53.554;9.916;2023-07-30T06:52:06;24.93;;;11.87;;
17796;SDS011;55596;53.554;9.916;2023-07-30T06:54:33;26.27;;;12.37;;
17796;SDS011;55596;53.554;9.916;2023-07-30T06:57:00;25.20;;;12.80;;
17796;SDS011;55596;53.554;9.916;2023-07-30T06:59:27;23.07;;;13.03;;
17796;SDS011;55596;53.554;9.916;2023-07-30T07:01:54;21.97;;;12.00;;
17796;SDS011;55596;53.554;9.916;2023-07-30T07:04:22;27.90;;;11.63;;
17796;SDS011;55596;53.554;9.916;2023-07-30T07:06:50;26.53;;;11.37;;
17796;SDS011;55596;53.554;9.916;2023-07-30T07:09:17;24.17;;;10.43;;
17796;SDS011;55596;53.554;9.916;2023-07-30T07:11:44;26.13;;;10.70;;
17796;SDS011;55596;53.554;9.916;2023-07-30T07:14:11;19.33;;;9.53;;
17796;SDS011;55596;53.554;9.916;2023-07-30T07:16:39;21.03;;;9.63;;
17796;SDS011;55596;53.554;9.916;2023-07-30T07:19:06;23.50;;;8.13;;
17796;SDS011;55596;53.554;9.916;2023-07-30T07:21:33;20.93;;;8.57;;
17796;SDS011;55596;53.554;9.916;2023-07-30T07:24:01;26.50;;;9.20;;
17796;SDS011;55596;53.554;9.916;2023-07-30T07:26:29;24.40;;;8.17;;
17796;SDS011;55596;53.554;9.916;2023-07-30T07:28:56;24.17;;;8.87;;
17796;SDS011;55596;53.554;9.916;2023-07-30T07:31:23;22.27;;;8.10;;
17796;SDS011;55596;53.554;9.916;2023-07-30T07:33:50;27.03;;;8.47;;
17796;SDS011;55596;53.554;9.916;2023-07-30T07:36:17;16.00;;;7.77;;
17796;SDS011;55596;53.554;9.916;2023-07-30T07:38:44;21.27;;;7.37;;
17796;SDS011;55596;53.554;9.916;2023-07-30T07:41:14;23.40;;;7.20;;
17796;SDS011;55596;53.554;9.916;2023-07-30T07:43:42;22.27;;;7.20;;
17796;SDS011;55596;53.554;9.916;2023-07-30T07:46:11;20.17;;;7.27;;
17796;SDS011;55596;53.554;9.916;2023-07-30T07:48:39;19.10;;;6.63;;
17796;SDS011;55596;53.554;9.916;2023-07-30T07:51:07;18.53;;;6.03;;
17796;SDS011;55596;53.554;9.916;2023-07-30T07:53:34;16.70;;;5.73;;
17796;SDS011;55596;53.554;9.916;2023-07-30T07:56:01;17.00;;;6.43;;
17796;SDS011;55596;53.554;9.916;2023-07-30T07:58:30;12.73;;;5.33;;
17796;SDS011;55596;53.554;9.916;2023-07-30T08:00:57;18.20;;;6.57;;
17796;SDS011;55596;53.554;9.916;2023-07-30T08:03:25;19.03;;;6.87;;
17796;SDS011;55596;53.554;9.916;2023-07-30T08:05:52;15.77;;;6.13;;
17796;SDS011;55596;53.554;9.916;2023-07-30T08:08:20;17.40;;;6.17;;
17796;SDS011;55596;53.554;9.916;2023-07-30T08:10:47;18.97;;;7.13;;
17796;SDS011;55596;53.554;9.916;2023-07-30T08:13:14;24.37;;;6.37;;
17796;SDS011;55596;53.554;9.916;2023-07-30T08:15:42;15.40;;;6.20;;
17796;SDS011;55596;53.554;9.916;2023-07-30T08:18:10;17.83;;;5.97;;
17796;SDS011;55596;53.554;9.916;2023-07-30T08:20:37;20.60;;;5.82;;
17796;SDS011;55596;53.554;9.916;2023-07-30T08:23:04;16.23;;;5.37;;
17796;SDS011;55596;53.554;9.916;2023-07-30T08:25:31;17.35;;;5.75;;
17796;SDS011;55596;53.554;9.916;2023-07-30T08:27:58;19.07;;;5.07;;
17796;SDS011;55596;53.554;9.916;2023-07-30T08:30:25;15.30;;;4.77;;
17796;SDS011;55596;53.554;9.916;2023-07-30T08:32:54;17.27;;;5.37;;
17796;SDS011;55596;53.554;9.916;2023-07-30T08:35:21;15.60;;;4.78;;
17796;SDS011;55596;53.554;9.916;2023-07-30T08:37:48;14.63;;;4.00;;
17796;SDS011;55596;53.554;9.916;2023-07-30T08:40:16;13.50;;;4.47;;
17796;SDS011;55596;53.554;9.916;2023-07-30T08:42:43;16.73;;;4.80;;
17796;SDS011;55596;53.554;9.916;2023-07-30T08:45:10;23.92;;;4.90;;
17796;SDS011;55596;53.554;9.916;2023-07-30T08:47:39;23.45;;;4.90;;
17796;SDS011;55596;53.554;9.916;2023-07-30T08:50:08;19.03;;;4.63;;
17796;SDS011;55596;53.554;9.916;2023-07-30T08:52:35;21.10;;;5.07;;
17796;SDS011;55596;53.554;9.916;2023-07-30T08:55:03;17.33;;;4.07;;
17796;SDS011;55596;53.554;9.916;2023-07-30T08:57:31;18.63;;;4.13;;
17796;SDS011;55596;53.554;9.916;2023-07-30T09:00:00;13.73;;;3.85;;
17796;SDS011;55596;53.554;9.916;2023-07-30T09:02:30;14.40;;;3.90;;
17796;SDS011;55596;53.554;9.916;2023-07-30T09:04:58;18.00;;;4.28;;
17796;SDS011;55596;53.554;9.916;2023-07-30T09:07:28;16.45;;;3.83;;
17796;SDS011;55596;53.554;9.916;2023-07-30T09:09:55;10.93;;;3.42;;
17796;SDS011;55596;53.554;9.916;2023-07-30T09:12:25;12.93;;;3.92;;
17796;SDS011;55596;53.554;9.916;2023-07-30T09:14:53;19.52;;;4.68;;
17796;SDS011;55596;53.554;9.916;2023-07-30T09:17:20;12.85;;;4.10;;
17796;SDS011;55596;53.554;9.916;2023-07-30T09:19:47;12.38;;;3.72;;
17796;SDS011;55596;53.554;9.916;2023-07-30T09:22:19;12.98;;;3.50;;
17796;SDS011;55596;53.554;9.916;2023-07-30T09:24:48;18.83;;;4.22;;
17796;SDS011;55596;53.554;9.916;2023-07-30T09:27:19;15.98;;;4.10;;
17796;SDS011;55596;53.554;9.916;2023-07-30T09:29:50;14.02;;;3.85;;
17796;SDS011;55596;53.554;9.916;2023-07-30T09:32:17;12.30;;;3.60;;
17796;SDS011;55596;53.554;9.916;2023-07-30T09:34:45;14.30;;;3.85;;
17796;SDS011;55596;53.554;9.916;2023-07-30T09:37:13;19.15;;;3.78;;
17796;SDS011;55596;53.554;9.916;2023-07-30T09:39:41;15.98;;;4.00;;
17796;SDS011;55596;53.554;9.916;2023-07-30T09:42:09;15.15;;;3.63;;
17796;SDS011;55596;53.554;9.916;2023-07-30T09:44:37;12.32;;;3.58;;
17796;SDS011;55596;53.554;9.916;2023-07-30T09:47:05;11.65;;;3.47;;
17796;SDS011;55596;53.554;9.916;2023-07-30T09:49:35;13.20;;;3.50;;
17796;SDS011;55596;53.554;9.916;2023-07-30T09:52:03;13.40;;;4.05;;
17796;SDS011;55596;53.554;9.916;2023-07-30T09:54:31;11.98;;;3.55;;
17796;SDS011;55596;53.554;9.916;2023-07-30T09:56:58;15.98;;;3.92;;
17796;SDS011;55596;53.554;9.916;2023-07-30T09:59:27;18.42;;;4.10;;
17796;SDS011;55596;53.554;9.916;2023-07-30T10:01:55;16.33;;;4.40;;
17796;SDS011;55596;53.554;9.916;2023-07-30T10:04:23;12.07;;;3.90;;
17796;SDS011;55596;53.554;9.916;2023-07-30T10:06:53;12.98;;;3.53;;
17796;SDS011;55596;53.554;9.916;2023-07-30T10:09:20;16.85;;;3.83;;
17796;SDS011;55596;53.554;9.916;2023-07-30T10:11:49;13.43;;;3.83;;
17796;SDS011;55596;53.554;9.916;2023-07-30T10:14:18;10.63;;;3.13;;
17796;SDS011;55596;53.554;9.916;2023-07-30T10:16:52;11.30;;;3.10;;
17796;SDS011;55596;53.554;9.916;2023-07-30T10:19:22;13.38;;;3.67;;
17796;SDS011;55596;53.554;9.916;2023-07-30T10:21:49;11.48;;;3.30;;
17796;SDS011;55596;53.554;9.916;2023-07-30T10:24:17;12.18;;;2.90;;
17796;SDS011;55596;53.554;9.916;2023-07-30T10:26:44;10.57;;;3.10;;
17796;SDS011;55596;53.554;9.916;2023-07-30T10:29:12;16.08;;;3.25;;
17796;SDS011;55596;53.554;9.916;2023-07-30T10:31:38;10.63;;;3.38;;
17796;SDS011;55596;53.554;9.916;2023-07-30T10:34:08;14.20;;;3.63;;
17796;SDS011;55596;53.554;9.916;2023-07-30T10:36:38;10.07;;;3.13;;
17796;SDS011;55596;53.554;9.916;2023-07-30T10:39:11;18.15;;;3.85;;
17796;SDS011;55596;53.554;9.916;2023-07-30T10:41:38;8.77;;;3.15;;
17796;SDS011;55596;53.554;9.916;2023-07-30T10:44:05;10.13;;;2.85;;
17796;SDS011;55596;53.554;9.916;2023-07-30T10:46:32;12.20;;;3.03;;
17796;SDS011;55596;53.554;9.916;2023-07-30T10:48:59;13.30;;;3.13;;
17796;SDS011;55596;53.554;9.916;2023-07-30T10:51:28;5.88;;;2.55;;
17796;SDS011;55596;53.554;9.916;2023-07-30T10:53:56;9.85;;;2.70;;
17796;SDS011;55596;53.554;9.916;2023-07-30T10:56:23;8.90;;;2.88;;
17796;SDS011;55596;53.554;9.916;2023-07-30T10:58:51;9.02;;;2.90;;
17796;SDS011;55596;53.554;9.916;2023-07-30T11:01:18;12.50;;;3.10;;
17796;SDS011;55596;53.554;9.916;2023-07-30T11:03:48;13.45;;;2.72;;
17796;SDS011;55596;53.554;9.916;2023-07-30T11:06:20;8.73;;;2.40;;
17796;SDS011;55596;53.554;9.916;2023-07-30T11:08:49;9.13;;;2.40;;
17796;SDS011;55596;53.554;9.916;2023-07-30T11:11:16;10.85;;;3.05;;
17796;SDS011;55596;53.554;9.916;2023-07-30T11:13:44;10.65;;;2.88;;
17796;SDS011;55596;53.554;9.916;2023-07-30T11:16:12;7.63;;;2.22;;
17796;SDS011;55596;53.554;9.916;2023-07-30T11:18:40;14.45;;;2.80;;
17796;SDS011;55596;53.554;9.916;2023-07-30T11:21:08;7.85;;;2.60;;
17796;SDS011;55596;53.554;9.916;2023-07-30T11:23:36;9.60;;;2.60;;
17796;SDS011;55596;53.554;9.916;2023-07-30T11:26:06;10.68;;;2.60;;
17796;SDS011;55596;53.554;9.916;2023-07-30T11:28:34;5.78;;;2.17;;
17796;SDS011;55596;53.554;9.916;2023-07-30T11:31:03;9.20;;;2.38;;
17796;SDS011;55596;53.554;9.916;2023-07-30T11:33:31;12.40;;;2.80;;
17796;SDS011;55596;53.554;9.916;2023-07-30T11:35:59;8.85;;;2.65;;
17796;SDS011;55596;53.554;9.916;2023-07-30T11:38:30;7.50;;;2.42;;
17796;SDS011;55596;53.554;9.916;2023-07-30T11:40:58;8.40;;;2.40;;
17796;SDS011;55596;53.554;9.916;2023-07-30T11:43:27;8.10;;;2.40;;
17796;SDS011;55596;53.554;9.916;2023-07-30T11:48:40;9.27;;;2.65;;
17796;SDS011;55596;53.554;9.916;2023-07-30T11:51:17;9.00;;;2.10;;
17796;SDS011;55596;53.554;9.916;2023-07-30T11:53:49;10.00;;;2.42;;
17796;SDS011;55596;53.554;9.916;2023-07-30T11:56:17;8.00;;;2.05;;
17796;SDS011;55596;53.554;9.916;2023-07-30T11:58:46;8.48;;;2.33;;
17796;SDS011;55596;53.554;9.916;2023-07-30T12:01:14;6.25;;;1.90;;
17796;SDS011;55596;53.554;9.916;2023-07-30T12:03:41;4.95;;;1.85;;
17796;SDS011;55596;53.554;9.916;2023-07-30T12:06:09;7.10;;;2.20;;
17796;SDS011;55596;53.554;9.916;2023-07-30T12:08:36;7.20;;;2.20;;
17796;SDS011;55596;53.554;9.916;2023-07-30T12:11:04;6.47;;;2.28;;
17796;SDS011;55596;53.554;9.916;2023-07-30T12:13:32;7.05;;;2.47;;
17796;SDS011;55596;53.554;9.916;2023-07-30T12:16:03;8.30;;;2.30;;
17796;SDS011;55596;53.554;9.916;2023-07-30T12:18:30;8.07;;;2.40;;
17796;SDS011;55596;53.554;9.916;2023-07-30T12:20:57;6.63;;;2.13;;
17796;SDS011;55596;53.554;9.916;2023-07-30T12:23:24;6.28;;;1.92;;
17796;SDS011;55596;53.554;9.916;2023-07-30T12:25:52;7.03;;;2.05;;
17796;SDS011;55596;53.554;9.916;2023-07-30T12:28:19;5.05;;;2.05;;
17796;SDS011;55596;53.554;9.916;2023-07-30T12:30:46;4.70;;;2.00;;
17796;SDS011;55596;53.554;9.916;2023-07-30T12:33:15;11.35;;;2.17;;
17796;SDS011;55596;53.554;9.916;2023-07-30T12:35:42;5.95;;;1.80;;
17796;SDS011;55596;53.554;9.916;2023-07-30T12:38:10;6.72;;;2.30;;
17796;SDS011;55596;53.554;9.916;2023-07-30T12:40:37;5.88;;;1.88;;
17796;SDS011;55596;53.554;9.916;2023-07-30T12:43:04;4.90;;;1.67;;
17796;SDS011;55596;53.554;9.916;2023-07-30T12:45:31;5.20;;;2.03;;
17796;SDS011;55596;53.554;9.916;2023-07-30T12:47:58;9.65;;;1.92;;
17796;SDS011;55596;53.554;9.916;2023-07-30T12:50:27;9.05;;;2.33;;
17796;SDS011;55596;53.554;9.916;2023-07-30T12:52:54;12.73;;;2.67;;
17796;SDS011;55596;53.554;9.916;2023-07-30T12:55:21;8.27;;;2.35;;
17796;SDS011;55596;53.554;9.916;2023-07-30T12:57:49;9.82;;;3.10;;
17796;SDS011;55596;53.554;9.916;2023-07-30T13:00:24;11.07;;;2.30;;
17796;SDS011;55596;53.554;9.916;2023-07-30T13:02:52;8.25;;;2.50;;
17796;SDS011;55596;53.554;9.916;2023-07-30T13:05:22;8.10;;;2.55;;
17796;SDS011;55596;53.554;9.916;2023-07-30T13:07:50;16.45;;;2.47;;
17796;SDS011;55596;53.554;9.916;2023-07-30T13:10:18;19.33;;;3.00;;
17796;SDS011;55596;53.554;9.916;2023-07-30T13:12:45;7.77;;;1.87;;
17796;SDS011;55596;53.554;9.916;2023-07-30T13:15:13;9.33;;;2.53;;
17796;SDS011;55596;53.554;9.916;2023-07-30T13:17:40;10.37;;;2.77;;
17796;SDS011;55596;53.554;9.916;2023-07-30T13:20:07;7.80;;;2.50;;
17796;SDS011;55596;53.554;9.916;2023-07-30T13:22:35;12.30;;;3.23;;
17796;SDS011;55596;53.554;9.916;2023-07-30T13:25:04;14.33;;;3.40;;
17796;SDS011;55596;53.554;9.916;2023-07-30T13:27:31;11.33;;;3.00;;
17796;SDS011;55596;53.554;9.916;2023-07-30T13:29:58;11.60;;;3.27;;
17796;SDS011;55596;53.554;9.916;2023-07-30T13:32:25;9.07;;;3.20;;
17796;SDS011;55596;53.554;9.916;2023-07-30T13:34:52;7.80;;;3.00;;
17796;SDS011;55596;53.554;9.916;2023-07-30T13:37:19;11.43;;;3.50;;
17796;SDS011;55596;53.554;9.916;2023-07-30T13:39:47;9.20;;;3.27;;
17796;SDS011;55596;53.554;9.916;2023-07-30T13:42:15;15.83;;;4.20;;
17796;SDS011;55596;53.554;9.916;2023-07-30T13:44:42;12.47;;;3.63;;
17796;SDS011;55596;53.554;9.916;2023-07-30T13:47:10;9.40;;;3.43;;
17796;SDS011;55596;53.554;9.916;2023-07-30T13:49:37;8.23;;;3.30;;
17796;SDS011;55596;53.554;9.916;2023-07-30T13:52:04;11.67;;;3.40;;
17796;SDS011;55596;53.554;9.916;2023-07-30T13:54:32;8.03;;;3.30;;
17796;SDS011;55596;53.554;9.916;2023-07-30T13:57:01;9.17;;;3.40;;
17796;SDS011;55596;53.554;9.916;2023-07-30T13:59:30;12.47;;;3.70;;
17796;SDS011;55596;53.554;9.916;2023-07-30T14:01:57;10.33;;;3.07;;
17796;SDS011;55596;53.554;9.916;2023-07-30T14:04:24;8.67;;;2.53;;
17796;SDS011;55596;53.554;9.916;2023-07-30T14:06:51;4.97;;;2.07;;
17796;SDS011;55596;53.554;9.916;2023-07-30T14:09:19;7.00;;;2.03;;
17796;SDS011;55596;53.554;9.916;2023-07-30T14:11:46;3.50;;;1.37;;
17796;SDS011;55596;53.554;9.916;2023-07-30T14:14:13;4.17;;;1.30;;
17796;SDS011;55596;53.554;9.916;2023-07-30T14:16:42;3.75;;;1.25;;
17796;SDS011;55596;53.554;9.916;2023-07-30T14:19:09;3.90;;;1.30;;
17796;SDS011;55596;53.554;9.916;2023-07-30T14:21:36;2.55;;;1.10;;
17796;SDS011;55596;53.554;9.916;2023-07-30T14:24:05;3.10;;;1.20;;
17796;SDS011;55596;53.554;9.916;2023-07-30T14:26:32;2.15;;;1.20;;
17796;SDS011;55596;53.554;9.916;2023-07-30T14:29:00;3.38;;;1.10;;
17796;SDS011;55596;53.554;9.916;2023-07-30T14:31:28;3.47;;;1.33;;
17796;SDS011;55596;53.554;9.916;2023-07-30T14:33:56;4.45;;;1.35;;
17796;SDS011;55596;53.554;9.916;2023-07-30T14:36:24;2.95;;;1.25;;